Airfield :
LOGIN :

Register | Disclaimer

   EN    FR    IT 

 










Legend :    VFR   Marginal VFR   IFR   Intensive IFR   Very Intensive IFR
Visi :
Ceiling :
>= 8 km
>= 3000ft
5 to 8 km
1000 to 3000 ft
1500m to 5 km
500 to 1000 ft
800 to 1500m
200 to 500 ft
< 800m
< 200 ft
Symbols :   Thunderstorms  Fog  Heavy snow  Heavy precipitations  Wind > 20 kt
SIGMETs :     Misc.  Thunderstorms  Icing  Turbulence  Mountain Waves  Volcanic Ashes






- Airport Elevation : 23 ft
- IATA code : XFW


EDHI - Hamburg Finkenwerder

CURRENT METAR :
  • 181850Z AUTO 31007KT 9999 // FEW033/// SCT088/// 12/07 Q1012

EXPIRED METARs :
  • 181750Z 23005KT 9999 -SHRA FEW022TCU SCT048 12/09 Q1012
  • 181720Z 27004KT 9999 FEW047 12/08 Q1011
  • 181650Z 27004KT 240V330 9999 FEW047 12/07 Q1011
  • 181620Z 27009KT 9999 -SHRA FEW028 SCT033CB BKN045 11/08 Q1011

TAF TAF EDHI
Valid from the 18 at 18:00 until the 18 at 21:00 UTC


181700Z 1818/1821 28005KT 9999 SCT040



MET'MAP, your aeronautical weather chart ! - Copyright ORBIFLY December 2007 - Disclaimer

ORBIFLY MET'MAP TEAM :

Programming & Development : Alexandra Zaïnal
Concept & original design : Baudouin d'Aumeries
Assistance for programming : Marc-Olivier Méhu
Technical & hardware support : Manuel Goepfert

Contact : metmap@orbifly.com




SOURCES & CREDITS :

   NOAA